This is the latest recevied weather packets stored in our database for station/object WC4PEM. If no packets are shown the sender has not sent any weather packets the latest 1 day(s).
| Time | Temp. | Humidity | Pressure | Rain* | Wind** | Luminosity | Snow |
|---|---|---|---|---|---|---|---|
| 1778005767 | 30.56° C | 48% | 1014.5 hPa | 0 mm | 4.02 m/s, 103° | - | - |
| 1778005467 | 31.11° C | 47% | 1014.6 hPa | 0 mm | 2.68 m/s, 68° | - | - |
| 1778005242 | 31.67° C | 45% | 1014.7 hPa | 0 mm | 2.24 m/s, 137° | - | - |
| 1778005167 | 31.67° C | 45% | 1014.7 hPa | 0 mm | 2.24 m/s, 137° | - | - |
| 1778004867 | 31.67° C | 46% | 1014.8 hPa | 0 mm | 3.13 m/s, 49° | - | - |
| 1778004567 | 31.11° C | 47% | 1014.7 hPa | 0 mm | 2.68 m/s, 50° | - | - |
| 1778004416 | 30.56° C | 47% | 1014.8 hPa | 0 mm | 2.24 m/s, 63° | - | - |
| 1778004267 | 30.56° C | 47% | 1014.8 hPa | 0 mm | 2.24 m/s, 63° | - | - |
| 1778004008 | 30.56° C | 50% | 1014.9 hPa | 0 mm | 2.68 m/s, 53° | - | - |
| 1778003967 | 30.56° C | 48% | 1015 hPa | 0 mm | 2.24 m/s, 99° | - | - |
| 1778003667 | 30.56° C | 50% | 1014.9 hPa | 0 mm | 2.68 m/s, 53° | - | - |
| 1778003367 | 30° C | 49% | 1015.1 hPa | 0 mm | 3.58 m/s, 232° | - | - |
| 1778003219 | 30° C | 51% | 1015.2 hPa | 0 mm | 3.58 m/s, 24° | - | - |
| 1778003067 | 30° C | 50% | 1015.2 hPa | 0 mm | 3.58 m/s, 50° | - | - |
| 1778002894 | 30° C | 51% | 1015.2 hPa | 0 mm | 3.58 m/s, 24° | - | - |
| 1778002767 | 30° C | 51% | 1015.2 hPa | 0 mm | 3.58 m/s, 24° | - | - |
| 1778002529 | 30° C | 51% | 1015.3 hPa | 0 mm | 3.13 m/s, 45° | - | - |
| 1778002467 | 30° C | 51% | 1015.3 hPa | 0 mm | 3.13 m/s, 45° | - | - |
| 1778002167 | 30° C | 51% | 1015.2 hPa | 0 mm | 3.13 m/s, 104° | - | - |
| 1778001867 | 30° C | 50% | 1015.2 hPa | 0 mm | 3.13 m/s, 26° | - | - |
| 1778001567 | 30° C | 50% | 1015.3 hPa | 0 mm | 2.24 m/s, 90° | - | - |
| 1778001326 | 30° C | 50% | 1015.4 hPa | 0 mm | 2.24 m/s, 61° | - | - |
| 1778001267 | 30° C | 50% | 1015.4 hPa | 0 mm | 2.24 m/s, 61° | - | - |
| 1778000967 | 30° C | 50% | 1015.3 hPa | 0 mm | 3.58 m/s, 188° | - | - |
| 1778000667 | 30° C | 52% | 1015.3 hPa | 0 mm | 3.58 m/s, 86° | - | - |
* Rain latest hour (hover to see other rain measurements)
** Current wind speed in m/s (hover to see current wind gust speed)